sensor_id;sensor_type;location;lat;lon;timestamp;pressure;altitude;pressure_sealevel;temperature;humidity
29569;BME280;16501;51.462;14.346;2023-05-10T00:01:49;99860.28;;;11.10;61.56
29569;BME280;16501;51.462;14.346;2023-05-10T00:04:15;99840.84;;;11.06;62.23
29569;BME280;16501;51.462;14.346;2023-05-10T00:06:40;99851.66;;;11.13;62.07
29569;BME280;16501;51.462;14.346;2023-05-10T00:09:05;99837.56;;;11.08;61.77
29569;BME280;16501;51.462;14.346;2023-05-10T00:11:31;99849.06;;;11.10;62.08
29569;BME280;16501;51.462;14.346;2023-05-10T00:13:56;99823.94;;;10.86;62.12
29569;BME280;16501;51.462;14.346;2023-05-10T00:16:21;99828.59;;;10.89;61.84
29569;BME280;16501;51.462;14.346;2023-05-10T00:18:47;99845.66;;;11.06;61.76
29569;BME280;16501;51.462;14.346;2023-05-10T00:21:12;99849.81;;;11.10;61.78
29569;BME280;16501;51.462;14.346;2023-05-10T00:23:38;99834.69;;;10.87;62.13
29569;BME280;16501;51.462;14.346;2023-05-10T00:26:03;99834.78;;;10.93;63.08
29569;BME280;16501;51.462;14.346;2023-05-10T00:28:28;99845.03;;;10.96;61.82
29569;BME280;16501;51.462;14.346;2023-05-10T00:30:54;99834.97;;;10.89;61.87
29569;BME280;16501;51.462;14.346;2023-05-10T00:33:20;99842.63;;;10.89;61.75
29569;BME280;16501;51.462;14.346;2023-05-10T00:35:45;99836.81;;;10.92;62.21
29569;BME280;16501;51.462;14.346;2023-05-10T00:38:11;99830.03;;;10.84;61.94
29569;BME280;16501;51.462;14.346;2023-05-10T00:40:36;99828.31;;;10.87;62.63
29569;BME280;16501;51.462;14.346;2023-05-10T00:43:02;99832.94;;;10.90;62.50
29569;BME280;16501;51.462;14.346;2023-05-10T00:45:29;99831.81;;;10.82;62.98
29569;BME280;16501;51.462;14.346;2023-05-10T00:47:54;99831.88;;;10.72;65.19
29569;BME280;16501;51.462;14.346;2023-05-10T00:50:22;99826.47;;;10.69;66.44
29569;BME280;16501;51.462;14.346;2023-05-10T00:52:47;99797.97;;;10.41;66.27
29569;BME280;16501;51.462;14.346;2023-05-10T00:55:13;99816.81;;;10.55;66.39
29569;BME280;16501;51.462;14.346;2023-05-10T00:57:38;99796.19;;;10.28;66.77
29569;BME280;16501;51.462;14.346;2023-05-10T01:00:05;99809.66;;;10.39;66.54
29569;BME280;16501;51.462;14.346;2023-05-10T01:02:30;99814.50;;;10.38;66.56
29569;BME280;16501;51.462;14.346;2023-05-10T01:04:55;99814.56;;;10.29;67.35
29569;BME280;16501;51.462;14.346;2023-05-10T01:07:20;99801.59;;;10.17;67.13
29569;BME280;16501;51.462;14.346;2023-05-10T01:09:46;99802.25;;;10.12;68.04
29569;BME280;16501;51.462;14.346;2023-05-10T01:12:12;99789.13;;;10.03;68.46
29569;BME280;16501;51.462;14.346;2023-05-10T01:14:37;99815.44;;;10.21;68.29
29569;BME280;16501;51.462;14.346;2023-05-10T01:17:05;99797.66;;;10.09;67.87
29569;BME280;16501;51.462;14.346;2023-05-10T01:19:31;99802.06;;;10.00;67.82
29569;BME280;16501;51.462;14.346;2023-05-10T01:24:59;99805.91;;;10.03;68.73
29569;BME280;16501;51.462;14.346;2023-05-10T01:28:04;99812.22;;;9.98;68.98
29569;BME280;16501;51.462;14.346;2023-05-10T01:33:23;99794.41;;;9.86;69.66
29569;BME280;16501;51.462;14.346;2023-05-10T01:35:55;99794.69;;;9.88;69.68
29569;BME280;16501;51.462;14.346;2023-05-10T01:38:50;99803.03;;;9.97;69.12
29569;BME280;16501;51.462;14.346;2023-05-10T01:41:30;99800.69;;;9.96;68.85
29569;BME280;16501;51.462;14.346;2023-05-10T01:44:13;99811.91;;;9.96;68.70
29569;BME280;16501;51.462;14.346;2023-05-10T01:46:41;99815.19;;;9.94;68.45
29569;BME280;16501;51.462;14.346;2023-05-10T01:49:41;99805.91;;;9.88;69.21
29569;BME280;16501;51.462;14.346;2023-05-10T01:52:11;99814.03;;;9.86;69.94
29569;BME280;16501;51.462;14.346;2023-05-10T01:54:50;99799.31;;;9.76;69.64
29569;BME280;16501;51.462;14.346;2023-05-10T01:57:20;99807.41;;;9.74;70.01
29569;BME280;16501;51.462;14.346;2023-05-10T01:59:49;99803.44;;;9.66;70.36
29569;BME280;16501;51.462;14.346;2023-05-10T02:02:17;99804.25;;;9.57;70.24
29569;BME280;16501;51.462;14.346;2023-05-10T02:04:44;99783.63;;;9.55;70.91
29569;BME280;16501;51.462;14.346;2023-05-10T02:07:11;99790.53;;;9.44;71.50
29569;BME280;16501;51.462;14.346;2023-05-10T02:09:37;99809.88;;;9.57;71.84
29569;BME280;16501;51.462;14.346;2023-05-10T02:12:15;99805.22;;;9.54;72.55
29569;BME280;16501;51.462;14.346;2023-05-10T02:14:42;99796.31;;;9.41;73.00
29569;BME280;16501;51.462;14.346;2023-05-10T02:17:08;99802.59;;;9.51;72.50
29569;BME280;16501;51.462;14.346;2023-05-10T02:19:36;99787.94;;;9.32;73.48
29569;BME280;16501;51.462;14.346;2023-05-10T02:22:03;99796.00;;;9.39;73.51
29569;BME280;16501;51.462;14.346;2023-05-10T02:24:29;99796.00;;;9.39;73.65
29569;BME280;16501;51.462;14.346;2023-05-10T02:26:55;99776.06;;;9.22;74.01
29569;BME280;16501;51.462;14.346;2023-05-10T02:29:23;99776.22;;;9.18;74.36
29569;BME280;16501;51.462;14.346;2023-05-10T02:31:51;99797.78;;;9.27;74.98
29569;BME280;16501;51.462;14.346;2023-05-10T02:34:17;99763.00;;;9.19;75.60
29569;BME280;16501;51.462;14.346;2023-05-10T02:36:44;99766.63;;;9.10;74.96
29569;BME280;16501;51.462;14.346;2023-05-10T02:39:10;99759.19;;;9.07;74.42
29569;BME280;16501;51.462;14.346;2023-05-10T02:41:39;99774.56;;;9.12;74.51
29569;BME280;16501;51.462;14.346;2023-05-10T02:44:06;99784.00;;;9.14;74.57
29569;BME280;16501;51.462;14.346;2023-05-10T02:46:32;99779.97;;;9.15;75.49
29569;BME280;16501;51.462;14.346;2023-05-10T02:48:58;99778.13;;;9.12;75.66
29569;BME280;16501;51.462;14.346;2023-05-10T02:51:25;99783.44;;;9.10;75.51
29569;BME280;16501;51.462;14.346;2023-05-10T02:53:53;99784.53;;;9.03;75.47
29569;BME280;16501;51.462;14.346;2023-05-10T02:56:25;99777.88;;;9.01;76.01
29569;BME280;16501;51.462;14.346;2023-05-10T02:58:53;99781.63;;;8.98;75.92
29569;BME280;16501;51.462;14.346;2023-05-10T03:01:19;99782.91;;;8.87;76.04
29569;BME280;16501;51.462;14.346;2023-05-10T03:03:44;99769.53;;;8.92;76.58
29569;BME280;16501;51.462;14.346;2023-05-10T03:06:09;99769.88;;;8.84;76.35
29569;BME280;16501;51.462;14.346;2023-05-10T03:08:34;99768.97;;;8.78;77.00
29569;BME280;16501;51.462;14.346;2023-05-10T03:14:09;99714.78;;;8.33;78.30
29569;BME280;16501;51.462;14.346;2023-05-10T03:16:43;99759.72;;;8.63;78.95
29569;BME280;16501;51.462;14.346;2023-05-10T03:19:22;99772.47;;;8.64;79.48
29569;BME280;16501;51.462;14.346;2023-05-10T03:21:51;99766.41;;;8.56;80.60
29569;BME280;16501;51.462;14.346;2023-05-10T03:24:20;99783.47;;;8.67;80.72
29569;BME280;16501;51.462;14.346;2023-05-10T03:26:47;99776.63;;;8.68;81.46
29569;BME280;16501;51.462;14.346;2023-05-10T03:29:13;99776.97;;;8.61;82.86
29569;BME280;16501;51.462;14.346;2023-05-10T03:31:39;99775.09;;;8.67;83.54
29569;BME280;16501;51.462;14.346;2023-05-10T03:34:05;99764.41;;;8.57;83.60
29569;BME280;16501;51.462;14.346;2023-05-10T03:36:31;99754.53;;;8.46;84.11
29569;BME280;16501;51.462;14.346;2023-05-10T03:38:57;99758.22;;;8.53;84.00
29569;BME280;16501;51.462;14.346;2023-05-10T03:41:25;99769.97;;;8.57;84.93
29569;BME280;16501;51.462;14.346;2023-05-10T03:43:50;99767.81;;;8.52;84.45
29569;BME280;16501;51.462;14.346;2023-05-10T03:46:16;99772.66;;;8.51;85.18
29569;BME280;16501;51.462;14.346;2023-05-10T03:48:41;99749.22;;;8.39;84.41
29569;BME280;16501;51.462;14.346;2023-05-10T03:51:06;99756.81;;;8.48;84.11
29569;BME280;16501;51.462;14.346;2023-05-10T03:53:31;99766.25;;;8.60;82.89
29569;BME280;16501;51.462;14.346;2023-05-10T03:55:57;99763.16;;;8.58;83.07
29569;BME280;16501;51.462;14.346;2023-05-10T03:58:24;99753.38;;;8.53;82.48
29569;BME280;16501;51.462;14.346;2023-05-10T04:00:51;99761.44;;;8.60;82.29
29569;BME280;16501;51.462;14.346;2023-05-10T04:03:16;99761.75;;;8.62;82.43
29569;BME280;16501;51.462;14.346;2023-05-10T04:05:42;99783.91;;;8.75;82.75
29569;BME280;16501;51.462;14.346;2023-05-10T04:08:07;99746.88;;;8.56;83.18
29569;BME280;16501;51.462;14.346;2023-05-10T04:10:32;99728.88;;;8.48;82.60
29569;BME280;16501;51.462;14.346;2023-05-10T04:12:58;99761.72;;;8.72;83.25
29569;BME280;16501;51.462;14.346;2023-05-10T04:15:23;99756.41;;;8.74;83.66
29569;BME280;16501;51.462;14.346;2023-05-10T04:17:48;99760.91;;;8.80;83.26
29569;BME280;16501;51.462;14.346;2023-05-10T04:20:14;99764.59;;;8.86;83.22
29569;BME280;16501;51.462;14.346;2023-05-10T04:22:39;99748.59;;;8.87;83.21
29569;BME280;16501;51.462;14.346;2023-05-10T04:25:05;99757.09;;;8.93;84.24
29569;BME280;16501;51.462;14.346;2023-05-10T04:27:31;99751.34;;;8.96;83.09
29569;BME280;16501;51.462;14.346;2023-05-10T04:29:56;99757.84;;;9.02;82.01
29569;BME280;16501;51.462;14.346;2023-05-10T04:32:22;99746.84;;;8.99;82.06
29569;BME280;16501;51.462;14.346;2023-05-10T04:34:47;99745.38;;;9.03;82.16
29569;BME280;16501;51.462;14.346;2023-05-10T04:37:12;99745.03;;;9.11;80.89
29569;BME280;16501;51.462;14.346;2023-05-10T04:39:37;99748.09;;;9.22;81.08
29569;BME280;16501;51.462;14.346;2023-05-10T04:42:03;99766.00;;;9.39;79.35
29569;BME280;16501;51.462;14.346;2023-05-10T04:44:28;99751.63;;;9.47;78.31
29569;BME280;16501;51.462;14.346;2023-05-10T04:46:54;99760.44;;;9.54;78.03
29569;BME280;16501;51.462;14.346;2023-05-10T04:49:19;99756.03;;;9.62;76.75
29569;BME280;16501;51.462;14.346;2023-05-10T04:51:45;99764.34;;;9.72;76.10
29569;BME280;16501;51.462;14.346;2023-05-10T04:54:10;99748.63;;;9.74;75.91
29569;BME280;16501;51.462;14.346;2023-05-10T04:56:36;99738.31;;;9.80;74.99
29569;BME280;16501;51.462;14.346;2023-05-10T04:59:01;99743.63;;;9.93;75.45
29569;BME280;16501;51.462;14.346;2023-05-10T05:01:26;99755.22;;;10.01;73.58
29569;BME280;16501;51.462;14.346;2023-05-10T05:03:51;99755.34;;;10.07;74.06
29569;BME280;16501;51.462;14.346;2023-05-10T05:06:18;99757.38;;;10.21;73.55
29569;BME280;16501;51.462;14.346;2023-05-10T05:08:43;99749.72;;;10.22;74.16
29569;BME280;16501;51.462;14.346;2023-05-10T05:11:08;99740.06;;;10.23;73.39
29569;BME280;16501;51.462;14.346;2023-05-10T05:13:34;99749.75;;;10.36;73.83
29569;BME280;16501;51.462;14.346;2023-05-10T05:16:03;99765.38;;;10.58;72.84
29569;BME280;16501;51.462;14.346;2023-05-10T05:18:28;99764.50;;;10.67;72.42
29569;BME280;16501;51.462;14.346;2023-05-10T05:20:54;99762.38;;;10.62;71.65
29569;BME280;16501;51.462;14.346;2023-05-10T05:23:19;99777.25;;;10.83;70.75
29569;BME280;16501;51.462;14.346;2023-05-10T05:25:45;99768.25;;;10.79;70.60
29569;BME280;16501;51.462;14.346;2023-05-10T05:28:11;99774.41;;;10.98;70.46
29569;BME280;16501;51.462;14.346;2023-05-10T05:30:36;99766.56;;;11.02;71.48
29569;BME280;16501;51.462;14.346;2023-05-10T05:33:01;99768.75;;;11.12;68.89
29569;BME280;16501;51.462;14.346;2023-05-10T05:35:27;99770.66;;;11.21;69.86
29569;BME280;16501;51.462;14.346;2023-05-10T05:37:52;99749.75;;;11.22;70.02
29569;BME280;16501;51.462;14.346;2023-05-10T05:40:17;99770.38;;;11.40;69.39
29569;BME280;16501;51.462;14.346;2023-05-10T05:42:42;99766.19;;;11.50;69.78
29569;BME280;16501;51.462;14.346;2023-05-10T05:45:08;99739.94;;;11.53;69.27
29569;BME280;16501;51.462;14.346;2023-05-10T05:47:34;99771.31;;;11.72;68.86
29569;BME280;16501;51.462;14.346;2023-05-10T05:49:59;99764.75;;;11.81;68.97
29569;BME280;16501;51.462;14.346;2023-05-10T05:52:24;99751.69;;;11.78;68.24
29569;BME280;16501;51.462;14.346;2023-05-10T05:54:49;99756.75;;;11.94;67.81
29569;BME280;16501;51.462;14.346;2023-05-10T05:57:15;99753.56;;;12.07;68.68
29569;BME280;16501;51.462;14.346;2023-05-10T05:59:40;99751.13;;;12.20;67.43
29569;BME280;16501;51.462;14.346;2023-05-10T06:02:09;99745.72;;;12.17;65.89
29569;BME280;16501;51.462;14.346;2023-05-10T06:04:34;99737.94;;;12.32;66.44
29569;BME280;16501;51.462;14.346;2023-05-10T06:07:00;99731.13;;;12.44;65.85
29569;BME280;16501;51.462;14.346;2023-05-10T06:09:25;99732.47;;;12.49;65.60
29569;BME280;16501;51.462;14.346;2023-05-10T06:11:50;99743.63;;;12.70;65.97
29569;BME280;16501;51.462;14.346;2023-05-10T06:14:15;99724.44;;;12.74;63.99
29569;BME280;16501;51.462;14.346;2023-05-10T06:16:40;99734.50;;;12.86;63.09
29569;BME280;16501;51.462;14.346;2023-05-10T06:19:06;99745.63;;;13.07;63.61
29569;BME280;16501;51.462;14.346;2023-05-10T06:21:31;99751.06;;;13.16;62.91
29569;BME280;16501;51.462;14.346;2023-05-10T06:23:56;99730.81;;;13.12;62.43
29569;BME280;16501;51.462;14.346;2023-05-10T06:26:22;99725.50;;;13.25;64.07
29569;BME280;16501;51.462;14.346;2023-05-10T06:28:47;99756.91;;;13.55;62.64
29569;BME280;16501;51.462;14.346;2023-05-10T06:31:12;99741.81;;;13.64;62.30
29569;BME280;16501;51.462;14.346;2023-05-10T06:33:37;99728.25;;;13.63;60.86
29569;BME280;16501;51.462;14.346;2023-05-10T06:36:03;99738.78;;;13.73;60.58
29569;BME280;16501;51.462;14.346;2023-05-10T06:38:29;99751.59;;;13.86;61.16
29569;BME280;16501;51.462;14.346;2023-05-10T06:40:54;99755.72;;;13.96;58.13
29569;BME280;16501;51.462;14.346;2023-05-10T06:43:19;99745.47;;;13.93;59.04
29569;BME280;16501;51.462;14.346;2023-05-10T06:45:45;99750.91;;;14.02;59.17
29569;BME280;16501;51.462;14.346;2023-05-10T06:48:10;99737.81;;;14.05;60.20
29569;BME280;16501;51.462;14.346;2023-05-10T06:50:35;99736.53;;;14.23;59.50
29569;BME280;16501;51.462;14.346;2023-05-10T06:53:01;99749.13;;;14.33;58.02
29569;BME280;16501;51.462;14.346;2023-05-10T06:55:29;99738.63;;;14.39;58.72
29569;BME280;16501;51.462;14.346;2023-05-10T06:57:54;99734.00;;;14.47;56.76
29569;BME280;16501;51.462;14.346;2023-05-10T07:00:20;99747.59;;;14.71;58.05
29569;BME280;16501;51.462;14.346;2023-05-10T07:02:46;99757.34;;;14.76;56.46
29569;BME280;16501;51.462;14.346;2023-05-10T07:05:11;99756.03;;;14.88;57.11
29569;BME280;16501;51.462;14.346;2023-05-10T07:07:37;99745.28;;;14.81;55.00
29569;BME280;16501;51.462;14.346;2023-05-10T07:10:02;99735.78;;;14.90;55.74
29569;BME280;16501;51.462;14.346;2023-05-10T07:12:28;99743.69;;;15.03;55.31
29569;BME280;16501;51.462;14.346;2023-05-10T07:14:53;99739.63;;;14.98;54.01
29569;BME280;16501;51.462;14.346;2023-05-10T07:17:18;99748.06;;;15.15;55.26
29569;BME280;16501;51.462;14.346;2023-05-10T07:19:43;99734.44;;;15.19;54.79
29569;BME280;16501;51.462;14.346;2023-05-10T07:22:09;99743.63;;;15.25;52.89
29569;BME280;16501;51.462;14.346;2023-05-10T07:24:35;99719.78;;;15.21;54.38
29569;BME280;16501;51.462;14.346;2023-05-10T07:27:00;99742.81;;;15.42;54.00
29569;BME280;16501;51.462;14.346;2023-05-10T07:29:25;99744.34;;;15.43;54.25
29569;BME280;16501;51.462;14.346;2023-05-10T07:31:51;99727.66;;;15.45;53.48
29569;BME280;16501;51.462;14.346;2023-05-10T07:34:16;99757.84;;;15.73;53.12
29569;BME280;16501;51.462;14.346;2023-05-10T07:36:41;99760.63;;;15.84;54.20
29569;BME280;16501;51.462;14.346;2023-05-10T07:39:07;99747.31;;;15.73;52.28
29569;BME280;16501;51.462;14.346;2023-05-10T07:41:32;99769.06;;;15.90;53.36
29569;BME280;16501;51.462;14.346;2023-05-10T07:43:58;99761.09;;;15.88;51.73
29569;BME280;16501;51.462;14.346;2023-05-10T07:46:23;99723.91;;;15.78;52.47
29569;BME280;16501;51.462;14.346;2023-05-10T07:48:48;99742.25;;;16.02;51.51
29569;BME280;16501;51.462;14.346;2023-05-10T07:51:14;99750.41;;;16.17;51.22
29569;BME280;16501;51.462;14.346;2023-05-10T07:53:39;99747.00;;;16.24;50.91
29569;BME280;16501;51.462;14.346;2023-05-10T07:58:48;99715.56;;;16.33;51.91
29569;BME280;16501;51.462;14.346;2023-05-10T08:01:14;99751.44;;;16.50;49.98
29569;BME280;16501;51.462;14.346;2023-05-10T08:03:39;99757.78;;;16.62;50.05
29569;BME280;16501;51.462;14.346;2023-05-10T08:06:05;99753.13;;;16.64;49.59
29569;BME280;16501;51.462;14.346;2023-05-10T08:08:30;99760.44;;;16.78;49.76
29569;BME280;16501;51.462;14.346;2023-05-10T08:10:56;99741.88;;;16.83;49.86
29569;BME280;16501;51.462;14.346;2023-05-10T08:13:21;99755.69;;;16.98;49.85
29569;BME280;16501;51.462;14.346;2023-05-10T08:15:46;99766.41;;;17.05;49.45
29569;BME280;16501;51.462;14.346;2023-05-10T08:18:12;99766.28;;;17.17;48.93
29569;BME280;16501;51.462;14.346;2023-05-10T08:20:37;99757.97;;;17.24;50.01
29569;BME280;16501;51.462;14.346;2023-05-10T08:23:02;99738.25;;;17.13;47.57
29569;BME280;16501;51.462;14.346;2023-05-10T08:25:28;99761.97;;;17.34;50.00
29569;BME280;16501;51.462;14.346;2023-05-10T08:27:53;99749.75;;;17.45;48.96
29569;BME280;16501;51.462;14.346;2023-05-10T08:30:18;99767.41;;;17.32;47.13
29569;BME280;16501;51.462;14.346;2023-05-10T08:32:44;99756.34;;;17.29;48.33
29569;BME280;16501;51.462;14.346;2023-05-10T08:35:09;99741.97;;;17.27;48.43
29569;BME280;16501;51.462;14.346;2023-05-10T08:37:34;99746.91;;;17.45;47.04
29569;BME280;16501;51.462;14.346;2023-05-10T08:39:59;99742.00;;;17.46;47.78
29569;BME280;16501;51.462;14.346;2023-05-10T08:42:28;99736.88;;;17.63;48.30
29569;BME280;16501;51.462;14.346;2023-05-10T08:44:57;99742.56;;;17.63;47.62
29569;BME280;16501;51.462;14.346;2023-05-10T08:47:22;99757.34;;;17.75;45.85
29569;BME280;16501;51.462;14.346;2023-05-10T08:49:48;99775.91;;;17.95;47.73
29569;BME280;16501;51.462;14.346;2023-05-10T08:52:17;99783.56;;;18.19;49.20
29569;BME280;16501;51.462;14.346;2023-05-10T08:54:43;99779.81;;;18.11;45.65
29569;BME280;16501;51.462;14.346;2023-05-10T08:57:10;99769.94;;;18.18;47.18
29569;BME280;16501;51.462;14.346;2023-05-10T08:59:35;99769.91;;;18.37;46.87
29569;BME280;16501;51.462;14.346;2023-05-10T09:02:04;99765.38;;;18.28;46.17
29569;BME280;16501;51.462;14.346;2023-05-10T09:04:30;99781.53;;;18.52;47.90
29569;BME280;16501;51.462;14.346;2023-05-10T09:06:56;99779.13;;;18.56;45.23
29569;BME280;16501;51.462;14.346;2023-05-10T09:09:21;99784.28;;;18.58;44.64
29569;BME280;16501;51.462;14.346;2023-05-10T09:11:47;99784.50;;;18.60;44.88
29569;BME280;16501;51.462;14.346;2023-05-10T09:14:13;99761.25;;;18.61;44.50
29569;BME280;16501;51.462;14.346;2023-05-10T09:16:39;99767.06;;;18.69;43.45
29569;BME280;16501;51.462;14.346;2023-05-10T09:19:05;99783.56;;;18.71;45.34
29569;BME280;16501;51.462;14.346;2023-05-10T09:21:31;99779.06;;;18.62;44.42
29569;BME280;16501;51.462;14.346;2023-05-10T09:23:56;99785.41;;;18.68;45.23
29569;BME280;16501;51.462;14.346;2023-05-10T09:26:23;99784.69;;;18.81;44.10
29569;BME280;16501;51.462;14.346;2023-05-10T09:28:56;99776.66;;;18.98;44.63
29569;BME280;16501;51.462;14.346;2023-05-10T09:31:22;99772.72;;;19.01;44.92
29569;BME280;16501;51.462;14.346;2023-05-10T09:33:49;99788.78;;;19.26;45.08
29569;BME280;16501;51.462;14.346;2023-05-10T09:36:15;99781.47;;;19.30;43.35
29569;BME280;16501;51.462;14.346;2023-05-10T09:38:51;99781.16;;;19.47;43.60
29569;BME280;16501;51.462;14.346;2023-05-10T09:41:24;99786.28;;;19.35;44.40
29569;BME280;16501;51.462;14.346;2023-05-10T09:43:50;99775.78;;;19.44;44.71
29569;BME280;16501;51.462;14.346;2023-05-10T09:46:16;99781.72;;;19.46;43.20
29569;BME280;16501;51.462;14.346;2023-05-10T09:48:46;99771.50;;;19.50;42.65
29569;BME280;16501;51.462;14.346;2023-05-10T09:51:24;99770.75;;;19.63;43.01
29569;BME280;16501;51.462;14.346;2023-05-10T09:54:15;99780.38;;;19.73;43.60
29569;BME280;16501;51.462;14.346;2023-05-10T09:56:42;99777.53;;;19.73;43.60
29569;BME280;16501;51.462;14.346;2023-05-10T09:59:10;99784.84;;;19.69;42.58
29569;BME280;16501;51.462;14.346;2023-05-10T10:01:36;99753.69;;;19.50;42.58
29569;BME280;16501;51.462;14.346;2023-05-10T10:04:04;99782.91;;;19.77;43.01
29569;BME280;16501;51.462;14.346;2023-05-10T10:06:38;99782.84;;;19.90;42.27
29569;BME280;16501;51.462;14.346;2023-05-10T10:09:03;99769.19;;;19.89;40.68
29569;BME280;16501;51.462;14.346;2023-05-10T10:11:29;99787.22;;;20.05;41.44
29569;BME280;16501;51.462;14.346;2023-05-10T10:13:54;99781.97;;;19.95;41.37
29569;BME280;16501;51.462;14.346;2023-05-10T10:16:20;99785.47;;;20.02;40.35
29569;BME280;16501;51.462;14.346;2023-05-10T10:18:45;99776.84;;;19.94;41.74
29569;BME280;16501;51.462;14.346;2023-05-10T10:21:13;99779.47;;;19.92;41.17
29569;BME280;16501;51.462;14.346;2023-05-10T10:23:38;99778.09;;;20.06;42.64
29569;BME280;16501;51.462;14.346;2023-05-10T10:26:04;99772.25;;;20.25;42.13
29569;BME280;16501;51.462;14.346;2023-05-10T10:31:36;99772.47;;;20.27;40.90
29569;BME280;16501;51.462;14.346;2023-05-10T10:34:08;99779.97;;;20.38;40.40
29569;BME280;16501;51.462;14.346;2023-05-10T10:36:44;99781.44;;;20.52;40.59
29569;BME280;16501;51.462;14.346;2023-05-10T10:39:10;99770.09;;;20.39;41.10
29569;BME280;16501;51.462;14.346;2023-05-10T10:41:37;99758.94;;;20.41;39.77
29569;BME280;16501;51.462;14.346;2023-05-10T10:47:05;99783.44;;;20.44;40.56
29569;BME280;16501;51.462;14.346;2023-05-10T10:52:21;99771.88;;;20.63;39.55
29569;BME280;16501;51.462;14.346;2023-05-10T10:57:19;99774.63;;;20.98;40.05
29569;BME280;16501;51.462;14.346;2023-05-10T10:59:46;99774.84;;;21.00;39.42
29569;BME280;16501;51.462;14.346;2023-05-10T11:04:56;99774.13;;;21.07;38.86
29569;BME280;16501;51.462;14.346;2023-05-10T11:07:21;99785.44;;;21.20;39.38
29569;BME280;16501;51.462;14.346;2023-05-10T11:09:49;99769.81;;;21.14;38.23
29569;BME280;16501;51.462;14.346;2023-05-10T11:12:14;99776.03;;;21.04;37.28
29569;BME280;16501;51.462;14.346;2023-05-10T11:14:39;99768.13;;;21.18;38.31
29569;BME280;16501;51.462;14.346;2023-05-10T11:17:22;99777.25;;;21.17;38.41
29569;BME280;16501;51.462;14.346;2023-05-10T11:20:06;99768.63;;;21.38;39.33
29569;BME280;16501;51.462;14.346;2023-05-10T11:22:31;99761.34;;;21.29;37.29
29569;BME280;16501;51.462;14.346;2023-05-10T11:25:13;99773.13;;;21.25;37.28
29569;BME280;16501;51.462;14.346;2023-05-10T11:27:38;99765.09;;;21.16;38.39
29569;BME280;16501;51.462;14.346;2023-05-10T11:30:05;99777.25;;;21.17;39.34
29569;BME280;16501;51.462;14.346;2023-05-10T11:32:30;99756.47;;;21.08;38.71
29569;BME280;16501;51.462;14.346;2023-05-10T11:34:55;99781.00;;;21.40;38.57
29569;BME280;16501;51.462;14.346;2023-05-10T11:37:20;99768.69;;;21.17;37.41
29569;BME280;16501;51.462;14.346;2023-05-10T11:39:45;99774.84;;;21.57;38.11
29569;BME280;16501;51.462;14.346;2023-05-10T11:42:12;99771.47;;;21.66;37.17
29569;BME280;16501;51.462;14.346;2023-05-10T11:44:37;99765.03;;;21.74;36.83
29569;BME280;16501;51.462;14.346;2023-05-10T11:47:02;99772.25;;;21.75;37.52
29569;BME280;16501;51.462;14.346;2023-05-10T11:49:28;99775.94;;;21.91;37.22
29569;BME280;16501;51.462;14.346;2023-05-10T11:51:53;99781.56;;;21.68;36.84
29569;BME280;16501;51.462;14.346;2023-05-10T11:54:18;99776.13;;;21.85;37.63
29569;BME280;16501;51.462;14.346;2023-05-10T11:56:43;99789.66;;;21.92;37.66
29569;BME280;16501;51.462;14.346;2023-05-10T11:59:09;99783.44;;;22.09;39.83
29569;BME280;16501;51.462;14.346;2023-05-10T12:01:35;99768.22;;;22.14;37.94
29569;BME280;16501;51.462;14.346;2023-05-10T12:04:00;99784.22;;;22.17;38.81
29569;BME280;16501;51.462;14.346;2023-05-10T12:06:26;99777.34;;;22.20;37.17
29569;BME280;16501;51.462;14.346;2023-05-10T12:08:52;99773.69;;;21.97;36.99
29569;BME280;16501;51.462;14.346;2023-05-10T12:11:18;99776.19;;;22.00;37.06
29569;BME280;16501;51.462;14.346;2023-05-10T12:13:44;99777.72;;;22.17;38.12
29569;BME280;16501;51.462;14.346;2023-05-10T12:16:13;99770.97;;;22.28;37.98
29569;BME280;16501;51.462;14.346;2023-05-10T12:18:39;99775.34;;;22.36;37.66
29569;BME280;16501;51.462;14.346;2023-05-10T12:21:04;99775.72;;;22.33;36.88
29569;BME280;16501;51.462;14.346;2023-05-10T12:23:30;99770.72;;;22.26;36.88
29569;BME280;16501;51.462;14.346;2023-05-10T12:26:01;99771.94;;;22.46;37.46
29569;BME280;16501;51.462;14.346;2023-05-10T12:28:30;99776.88;;;22.37;35.49
29569;BME280;16501;51.462;14.346;2023-05-10T12:30:56;99780.88;;;22.50;36.43
29569;BME280;16501;51.462;14.346;2023-05-10T12:33:24;99770.97;;;22.43;36.01
29569;BME280;16501;51.462;14.346;2023-05-10T12:35:50;99781.28;;;22.69;37.40
29569;BME280;16501;51.462;14.346;2023-05-10T12:38:35;99777.47;;;22.82;36.78
29569;BME280;16501;51.462;14.346;2023-05-10T12:41:03;99777.88;;;22.78;34.25
29569;BME280;16501;51.462;14.346;2023-05-10T12:43:28;99767.56;;;22.91;37.24
29569;BME280;16501;51.462;14.346;2023-05-10T12:45:53;99772.53;;;22.83;35.01
29569;BME280;16501;51.462;14.346;2023-05-10T12:48:19;99774.06;;;22.68;35.25
29569;BME280;16501;51.462;14.346;2023-05-10T12:50:44;99771.56;;;22.57;36.37
29569;BME280;16501;51.462;14.346;2023-05-10T12:53:09;99776.31;;;22.54;37.91
29569;BME280;16501;51.462;14.346;2023-05-10T12:55:35;99777.47;;;22.59;36.32
29569;BME280;16501;51.462;14.346;2023-05-10T12:58:00;99772.31;;;22.65;36.08
29569;BME280;16501;51.462;14.346;2023-05-10T13:00:25;99773.28;;;22.75;36.60
29569;BME280;16501;51.462;14.346;2023-05-10T13:02:50;99776.34;;;22.85;37.50
29569;BME280;16501;51.462;14.346;2023-05-10T13:05:15;99780.31;;;22.90;36.77
29569;BME280;16501;51.462;14.346;2023-05-10T13:07:41;99780.16;;;22.88;37.09
29569;BME280;16501;51.462;14.346;2023-05-10T13:10:06;99775.38;;;22.98;36.30
29569;BME280;16501;51.462;14.346;2023-05-10T13:12:31;99766.63;;;22.81;36.24
29569;BME280;16501;51.462;14.346;2023-05-10T13:14:56;99774.56;;;22.36;36.25
29569;BME280;16501;51.462;14.346;2023-05-10T13:17:22;99775.25;;;22.13;37.01